sensor_id;sensor_type;location;lat;lon;timestamp;P1;durP1;ratioP1;P2;durP2;ratioP2
61188;SDS011;47054;39.716;2.904;2022-12-07T00:01:10;27.58;;;13.68;;
61188;SDS011;47054;39.716;2.904;2022-12-07T00:03:56;25.73;;;13.85;;
61188;SDS011;47054;39.716;2.904;2022-12-07T00:06:50;22.50;;;12.85;;
61188;SDS011;47054;39.716;2.904;2022-12-07T00:09:36;25.80;;;13.25;;
61188;SDS011;47054;39.716;2.904;2022-12-07T00:12:21;27.52;;;13.23;;
61188;SDS011;47054;39.716;2.904;2022-12-07T00:15:06;24.35;;;13.05;;
61188;SDS011;47054;39.716;2.904;2022-12-07T00:17:51;24.35;;;13.32;;
61188;SDS011;47054;39.716;2.904;2022-12-07T00:20:35;22.48;;;13.02;;
61188;SDS011;47054;39.716;2.904;2022-12-07T00:23:20;24.48;;;13.07;;
61188;SDS011;47054;39.716;2.904;2022-12-07T00:26:11;24.33;;;11.98;;
61188;SDS011;47054;39.716;2.904;2022-12-07T00:29:21;23.42;;;12.90;;
61188;SDS011;47054;39.716;2.904;2022-12-07T00:32:07;23.27;;;12.52;;
61188;SDS011;47054;39.716;2.904;2022-12-07T00:34:51;20.48;;;12.00;;
61188;SDS011;47054;39.716;2.904;2022-12-07T00:37:36;22.58;;;12.30;;
61188;SDS011;47054;39.716;2.904;2022-12-07T00:40:20;23.55;;;12.10;;
61188;SDS011;47054;39.716;2.904;2022-12-07T00:43:05;21.50;;;11.98;;
61188;SDS011;47054;39.716;2.904;2022-12-07T00:45:49;20.98;;;12.18;;
61188;SDS011;47054;39.716;2.904;2022-12-07T00:48:34;17.95;;;10.75;;
61188;SDS011;47054;39.716;2.904;2022-12-07T00:51:19;20.63;;;11.82;;
61188;SDS011;47054;39.716;2.904;2022-12-07T00:54:06;20.45;;;11.35;;
61188;SDS011;47054;39.716;2.904;2022-12-07T00:56:50;22.20;;;11.07;;
61188;SDS011;47054;39.716;2.904;2022-12-07T00:59:35;23.65;;;11.27;;
61188;SDS011;47054;39.716;2.904;2022-12-07T01:02:20;19.27;;;11.38;;
61188;SDS011;47054;39.716;2.904;2022-12-07T01:05:06;17.48;;;10.73;;
61188;SDS011;47054;39.716;2.904;2022-12-07T01:07:50;20.52;;;11.25;;
61188;SDS011;47054;39.716;2.904;2022-12-07T01:10:35;20.85;;;11.10;;
61188;SDS011;47054;39.716;2.904;2022-12-07T01:13:19;20.13;;;11.52;;
61188;SDS011;47054;39.716;2.904;2022-12-07T01:16:04;18.60;;;10.40;;
61188;SDS011;47054;39.716;2.904;2022-12-07T01:18:51;18.75;;;10.77;;
61188;SDS011;47054;39.716;2.904;2022-12-07T01:21:37;18.75;;;10.18;;
61188;SDS011;47054;39.716;2.904;2022-12-07T01:24:22;21.58;;;11.02;;
61188;SDS011;47054;39.716;2.904;2022-12-07T01:27:06;15.20;;;9.55;;
61188;SDS011;47054;39.716;2.904;2022-12-07T01:29:51;18.63;;;10.05;;
61188;SDS011;47054;39.716;2.904;2022-12-07T01:32:35;19.08;;;10.20;;
61188;SDS011;47054;39.716;2.904;2022-12-07T01:35:20;17.55;;;10.23;;
61188;SDS011;47054;39.716;2.904;2022-12-07T01:38:04;21.60;;;10.68;;
61188;SDS011;47054;39.716;2.904;2022-12-07T01:40:53;18.60;;;10.70;;
61188;SDS011;47054;39.716;2.904;2022-12-07T01:46:55;17.52;;;9.98;;
61188;SDS011;47054;39.716;2.904;2022-12-07T01:49:42;20.35;;;10.77;;
61188;SDS011;47054;39.716;2.904;2022-12-07T01:52:30;16.90;;;10.52;;
61188;SDS011;47054;39.716;2.904;2022-12-07T01:55:16;20.23;;;10.35;;
61188;SDS011;47054;39.716;2.904;2022-12-07T01:58:02;18.13;;;10.13;;
61188;SDS011;47054;39.716;2.904;2022-12-07T02:00:47;16.55;;;10.00;;
61188;SDS011;47054;39.716;2.904;2022-12-07T02:03:38;19.17;;;10.20;;
61188;SDS011;47054;39.716;2.904;2022-12-07T02:06:24;18.00;;;10.43;;
61188;SDS011;47054;39.716;2.904;2022-12-07T02:09:10;17.27;;;10.23;;
61188;SDS011;47054;39.716;2.904;2022-12-07T02:11:56;20.58;;;10.27;;
61188;SDS011;47054;39.716;2.904;2022-12-07T02:14:41;17.13;;;9.80;;
61188;SDS011;47054;39.716;2.904;2022-12-07T02:29:25;17.20;;;9.20;;
61188;SDS011;47054;39.716;2.904;2022-12-07T02:38:55;17.50;;;9.52;;
61188;SDS011;47054;39.716;2.904;2022-12-07T02:41:49;16.40;;;9.27;;
61188;SDS011;47054;39.716;2.904;2022-12-07T02:44:37;18.63;;;9.20;;
61188;SDS011;47054;39.716;2.904;2022-12-07T02:47:21;18.77;;;9.35;;
61188;SDS011;47054;39.716;2.904;2022-12-07T02:50:09;18.50;;;9.93;;
61188;SDS011;47054;39.716;2.904;2022-12-07T02:52:54;17.27;;;9.55;;
61188;SDS011;47054;39.716;2.904;2022-12-07T02:55:39;18.60;;;9.50;;
61188;SDS011;47054;39.716;2.904;2022-12-07T03:05:21;18.05;;;9.63;;
61188;SDS011;47054;39.716;2.904;2022-12-07T03:14:18;15.52;;;8.52;;
61188;SDS011;47054;39.716;2.904;2022-12-07T03:17:30;19.75;;;10.13;;
61188;SDS011;47054;39.716;2.904;2022-12-07T03:20:19;17.70;;;9.60;;
61188;SDS011;47054;39.716;2.904;2022-12-07T03:23:07;15.23;;;9.00;;
61188;SDS011;47054;39.716;2.904;2022-12-07T03:25:55;16.40;;;9.38;;
61188;SDS011;47054;39.716;2.904;2022-12-07T03:28:45;17.45;;;9.32;;
61188;SDS011;47054;39.716;2.904;2022-12-07T03:31:38;16.00;;;9.18;;
61188;SDS011;47054;39.716;2.904;2022-12-07T03:34:29;15.40;;;8.85;;
61188;SDS011;47054;39.716;2.904;2022-12-07T03:38:02;16.58;;;9.40;;
61188;SDS011;47054;39.716;2.904;2022-12-07T03:43:34;17.00;;;8.30;;
61188;SDS011;47054;39.716;2.904;2022-12-07T03:49:43;16.35;;;8.70;;
61188;SDS011;47054;39.716;2.904;2022-12-07T03:52:36;14.93;;;8.30;;
61188;SDS011;47054;39.716;2.904;2022-12-07T03:58:14;14.48;;;8.70;;
61188;SDS011;47054;39.716;2.904;2022-12-07T04:01:02;14.02;;;7.50;;
61188;SDS011;47054;39.716;2.904;2022-12-07T04:03:47;13.82;;;8.23;;
61188;SDS011;47054;39.716;2.904;2022-12-07T04:06:32;14.18;;;8.05;;
61188;SDS011;47054;39.716;2.904;2022-12-07T04:09:16;15.15;;;8.23;;
61188;SDS011;47054;39.716;2.904;2022-12-07T04:12:02;13.48;;;8.10;;
61188;SDS011;47054;39.716;2.904;2022-12-07T04:14:46;13.60;;;7.82;;
61188;SDS011;47054;39.716;2.904;2022-12-07T04:17:31;12.70;;;8.00;;
61188;SDS011;47054;39.716;2.904;2022-12-07T04:20:15;14.65;;;8.25;;
61188;SDS011;47054;39.716;2.904;2022-12-07T04:23:00;14.15;;;7.82;;
61188;SDS011;47054;39.716;2.904;2022-12-07T04:25:47;15.88;;;8.35;;
61188;SDS011;47054;39.716;2.904;2022-12-07T04:28:32;14.35;;;8.02;;
61188;SDS011;47054;39.716;2.904;2022-12-07T04:31:17;15.20;;;8.15;;
61188;SDS011;47054;39.716;2.904;2022-12-07T04:34:02;13.23;;;7.85;;
61188;SDS011;47054;39.716;2.904;2022-12-07T04:36:47;13.43;;;7.50;;
61188;SDS011;47054;39.716;2.904;2022-12-07T04:39:32;13.52;;;7.32;;
61188;SDS011;47054;39.716;2.904;2022-12-07T04:42:17;12.75;;;7.60;;
61188;SDS011;47054;39.716;2.904;2022-12-07T04:45:02;12.88;;;7.78;;
61188;SDS011;47054;39.716;2.904;2022-12-07T04:47:47;12.43;;;7.18;;
61188;SDS011;47054;39.716;2.904;2022-12-07T04:50:32;13.70;;;7.55;;
61188;SDS011;47054;39.716;2.904;2022-12-07T04:53:16;11.80;;;7.78;;
61188;SDS011;47054;39.716;2.904;2022-12-07T04:56:01;13.38;;;7.40;;
61188;SDS011;47054;39.716;2.904;2022-12-07T04:58:46;11.45;;;7.38;;
61188;SDS011;47054;39.716;2.904;2022-12-07T05:01:31;12.98;;;7.18;;
61188;SDS011;47054;39.716;2.904;2022-12-07T05:04:16;12.82;;;7.05;;
61188;SDS011;47054;39.716;2.904;2022-12-07T05:07:01;13.02;;;7.00;;
61188;SDS011;47054;39.716;2.904;2022-12-07T05:09:46;11.88;;;6.93;;
61188;SDS011;47054;39.716;2.904;2022-12-07T05:12:30;10.80;;;6.72;;
61188;SDS011;47054;39.716;2.904;2022-12-07T05:15:15;10.52;;;6.47;;
61188;SDS011;47054;39.716;2.904;2022-12-07T05:18:00;12.15;;;7.25;;
61188;SDS011;47054;39.716;2.904;2022-12-07T05:20:45;11.00;;;6.70;;
61188;SDS011;47054;39.716;2.904;2022-12-07T05:23:30;13.65;;;7.00;;
61188;SDS011;47054;39.716;2.904;2022-12-07T05:26:14;11.02;;;6.72;;
61188;SDS011;47054;39.716;2.904;2022-12-07T05:28:59;11.15;;;6.55;;
61188;SDS011;47054;39.716;2.904;2022-12-07T05:31:44;10.75;;;6.47;;
61188;SDS011;47054;39.716;2.904;2022-12-07T05:34:28;12.73;;;6.45;;
61188;SDS011;47054;39.716;2.904;2022-12-07T05:37:13;10.20;;;6.53;;
61188;SDS011;47054;39.716;2.904;2022-12-07T05:39:57;10.88;;;6.28;;
61188;SDS011;47054;39.716;2.904;2022-12-07T05:42:51;11.77;;;6.57;;
61188;SDS011;47054;39.716;2.904;2022-12-07T05:45:36;9.10;;;5.90;;
61188;SDS011;47054;39.716;2.904;2022-12-07T05:48:20;9.48;;;6.22;;
61188;SDS011;47054;39.716;2.904;2022-12-07T05:51:05;10.50;;;5.70;;
61188;SDS011;47054;39.716;2.904;2022-12-07T05:53:49;11.73;;;6.40;;
61188;SDS011;47054;39.716;2.904;2022-12-07T05:56:34;11.27;;;6.30;;
61188;SDS011;47054;39.716;2.904;2022-12-07T05:59:18;12.95;;;6.88;;
61188;SDS011;47054;39.716;2.904;2022-12-07T06:02:11;9.57;;;6.63;;
61188;SDS011;47054;39.716;2.904;2022-12-07T06:04:57;12.95;;;6.90;;
61188;SDS011;47054;39.716;2.904;2022-12-07T06:07:42;11.35;;;6.50;;
61188;SDS011;47054;39.716;2.904;2022-12-07T06:10:26;11.07;;;6.35;;
61188;SDS011;47054;39.716;2.904;2022-12-07T06:13:11;10.80;;;6.45;;
61188;SDS011;47054;39.716;2.904;2022-12-07T06:15:55;10.77;;;6.47;;
61188;SDS011;47054;39.716;2.904;2022-12-07T06:18:40;11.60;;;7.10;;
61188;SDS011;47054;39.716;2.904;2022-12-07T06:21:24;11.43;;;6.80;;
61188;SDS011;47054;39.716;2.904;2022-12-07T06:24:11;11.00;;;6.45;;
61188;SDS011;47054;39.716;2.904;2022-12-07T06:26:57;10.82;;;6.32;;
61188;SDS011;47054;39.716;2.904;2022-12-07T06:29:42;11.15;;;6.15;;
61188;SDS011;47054;39.716;2.904;2022-12-07T06:32:27;11.02;;;5.78;;
61188;SDS011;47054;39.716;2.904;2022-12-07T06:35:11;10.27;;;6.32;;
61188;SDS011;47054;39.716;2.904;2022-12-07T06:37:56;11.65;;;6.80;;
61188;SDS011;47054;39.716;2.904;2022-12-07T06:40:40;11.23;;;6.30;;
61188;SDS011;47054;39.716;2.904;2022-12-07T06:43:25;9.57;;;6.32;;
61188;SDS011;47054;39.716;2.904;2022-12-07T06:46:09;11.98;;;6.70;;
61188;SDS011;47054;39.716;2.904;2022-12-07T06:48:54;10.38;;;6.55;;
61188;SDS011;47054;39.716;2.904;2022-12-07T06:51:38;10.38;;;6.22;;
61188;SDS011;47054;39.716;2.904;2022-12-07T06:54:25;10.20;;;6.05;;
61188;SDS011;47054;39.716;2.904;2022-12-07T06:57:09;12.13;;;6.30;;
61188;SDS011;47054;39.716;2.904;2022-12-07T06:59:54;10.30;;;5.90;;
61188;SDS011;47054;39.716;2.904;2022-12-07T07:02:39;10.20;;;5.93;;
61188;SDS011;47054;39.716;2.904;2022-12-07T07:05:23;11.65;;;6.28;;
61188;SDS011;47054;39.716;2.904;2022-12-07T07:08:07;10.88;;;5.90;;
61188;SDS011;47054;39.716;2.904;2022-12-07T07:10:52;9.48;;;6.00;;
61188;SDS011;47054;39.716;2.904;2022-12-07T07:13:37;10.15;;;6.07;;
61188;SDS011;47054;39.716;2.904;2022-12-07T07:16:22;9.07;;;5.75;;
61188;SDS011;47054;39.716;2.904;2022-12-07T07:19:07;9.98;;;5.50;;
61188;SDS011;47054;39.716;2.904;2022-12-07T07:21:51;9.80;;;5.57;;
61188;SDS011;47054;39.716;2.904;2022-12-07T07:24:35;12.50;;;5.95;;
61188;SDS011;47054;39.716;2.904;2022-12-07T07:27:20;8.68;;;5.57;;
61188;SDS011;47054;39.716;2.904;2022-12-07T07:30:05;11.75;;;5.72;;
61188;SDS011;47054;39.716;2.904;2022-12-07T07:32:50;8.95;;;5.22;;
61188;SDS011;47054;39.716;2.904;2022-12-07T07:35:34;10.02;;;5.50;;
61188;SDS011;47054;39.716;2.904;2022-12-07T07:38:19;9.85;;;5.78;;
61188;SDS011;47054;39.716;2.904;2022-12-07T07:41:04;9.27;;;5.80;;
61188;SDS011;47054;39.716;2.904;2022-12-07T07:43:49;9.35;;;5.30;;
61188;SDS011;47054;39.716;2.904;2022-12-07T07:46:33;8.95;;;5.10;;
61188;SDS011;47054;39.716;2.904;2022-12-07T07:49:18;7.78;;;4.82;;
61188;SDS011;47054;39.716;2.904;2022-12-07T07:52:02;9.35;;;5.53;;
61188;SDS011;47054;39.716;2.904;2022-12-07T07:54:47;9.18;;;5.38;;
61188;SDS011;47054;39.716;2.904;2022-12-07T07:57:32;8.18;;;5.07;;
61188;SDS011;47054;39.716;2.904;2022-12-07T08:00:16;9.13;;;5.45;;
61188;SDS011;47054;39.716;2.904;2022-12-07T08:03:01;11.48;;;5.50;;
61188;SDS011;47054;39.716;2.904;2022-12-07T08:05:46;11.45;;;5.75;;
61188;SDS011;47054;39.716;2.904;2022-12-07T08:08:30;8.02;;;4.97;;
61188;SDS011;47054;39.716;2.904;2022-12-07T08:11:16;8.55;;;5.55;;
61188;SDS011;47054;39.716;2.904;2022-12-07T08:14:01;9.50;;;5.47;;
61188;SDS011;47054;39.716;2.904;2022-12-07T08:16:45;8.48;;;4.97;;
61188;SDS011;47054;39.716;2.904;2022-12-07T08:19:30;7.93;;;5.05;;
61188;SDS011;47054;39.716;2.904;2022-12-07T08:22:14;10.38;;;5.38;;
61188;SDS011;47054;39.716;2.904;2022-12-07T08:24:59;9.38;;;5.20;;
61188;SDS011;47054;39.716;2.904;2022-12-07T08:27:43;8.15;;;5.22;;
61188;SDS011;47054;39.716;2.904;2022-12-07T08:30:28;8.43;;;5.00;;
61188;SDS011;47054;39.716;2.904;2022-12-07T08:33:13;8.50;;;5.10;;
61188;SDS011;47054;39.716;2.904;2022-12-07T08:36:01;9.00;;;5.03;;
61188;SDS011;47054;39.716;2.904;2022-12-07T08:38:48;8.95;;;4.90;;
61188;SDS011;47054;39.716;2.904;2022-12-07T08:41:33;10.32;;;5.30;;
61188;SDS011;47054;39.716;2.904;2022-12-07T08:44:17;8.13;;;5.07;;
61188;SDS011;47054;39.716;2.904;2022-12-07T08:47:02;9.05;;;4.95;;
61188;SDS011;47054;39.716;2.904;2022-12-07T08:49:49;8.45;;;5.25;;
61188;SDS011;47054;39.716;2.904;2022-12-07T08:52:36;8.82;;;5.25;;
61188;SDS011;47054;39.716;2.904;2022-12-07T08:55:21;8.93;;;5.40;;
61188;SDS011;47054;39.716;2.904;2022-12-07T08:58:07;9.00;;;4.88;;
61188;SDS011;47054;39.716;2.904;2022-12-07T09:00:51;8.77;;;5.05;;
61188;SDS011;47054;39.716;2.904;2022-12-07T09:03:36;10.23;;;5.15;;
61188;SDS011;47054;39.716;2.904;2022-12-07T09:06:20;9.77;;;4.68;;
61188;SDS011;47054;39.716;2.904;2022-12-07T09:09:04;8.85;;;5.18;;
61188;SDS011;47054;39.716;2.904;2022-12-07T09:11:51;9.18;;;5.03;;
61188;SDS011;47054;39.716;2.904;2022-12-07T09:14:35;8.75;;;4.82;;
61188;SDS011;47054;39.716;2.904;2022-12-07T09:17:20;10.68;;;5.18;;
61188;SDS011;47054;39.716;2.904;2022-12-07T09:20:05;10.05;;;5.22;;
61188;SDS011;47054;39.716;2.904;2022-12-07T09:22:51;8.27;;;5.07;;
61188;SDS011;47054;39.716;2.904;2022-12-07T09:25:35;8.45;;;4.47;;
61188;SDS011;47054;39.716;2.904;2022-12-07T09:28:19;8.35;;;4.70;;
61188;SDS011;47054;39.716;2.904;2022-12-07T09:31:04;6.97;;;4.55;;
61188;SDS011;47054;39.716;2.904;2022-12-07T09:33:54;9.23;;;4.88;;
61188;SDS011;47054;39.716;2.904;2022-12-07T09:36:44;8.82;;;4.85;;
61188;SDS011;47054;39.716;2.904;2022-12-07T09:39:29;7.82;;;4.70;;
61188;SDS011;47054;39.716;2.904;2022-12-07T09:45:14;9.43;;;4.47;;
61188;SDS011;47054;39.716;2.904;2022-12-07T09:51:26;7.82;;;4.75;;
61188;SDS011;47054;39.716;2.904;2022-12-07T09:54:14;8.18;;;4.57;;
61188;SDS011;47054;39.716;2.904;2022-12-07T09:57:01;7.82;;;4.43;;
61188;SDS011;47054;39.716;2.904;2022-12-07T09:59:45;7.55;;;4.68;;
61188;SDS011;47054;39.716;2.904;2022-12-07T10:05:44;8.35;;;4.93;;
61188;SDS011;47054;39.716;2.904;2022-12-07T10:08:29;7.00;;;4.25;;
61188;SDS011;47054;39.716;2.904;2022-12-07T10:11:14;8.40;;;4.78;;
61188;SDS011;47054;39.716;2.904;2022-12-07T10:14:10;9.48;;;4.47;;
61188;SDS011;47054;39.716;2.904;2022-12-07T10:16:56;7.88;;;4.53;;
61188;SDS011;47054;39.716;2.904;2022-12-07T10:19:40;7.85;;;4.63;;
61188;SDS011;47054;39.716;2.904;2022-12-07T10:22:26;9.00;;;4.72;;
61188;SDS011;47054;39.716;2.904;2022-12-07T10:25:18;8.45;;;4.80;;
61188;SDS011;47054;39.716;2.904;2022-12-07T10:30:56;7.03;;;3.95;;
61188;SDS011;47054;39.716;2.904;2022-12-07T10:36:36;7.97;;;4.45;;
61188;SDS011;47054;39.716;2.904;2022-12-07T10:39:22;6.45;;;4.13;;
61188;SDS011;47054;39.716;2.904;2022-12-07T10:42:13;8.70;;;4.50;;
61188;SDS011;47054;39.716;2.904;2022-12-07T10:48:06;7.55;;;4.45;;
61188;SDS011;47054;39.716;2.904;2022-12-07T10:51:00;7.25;;;4.47;;
61188;SDS011;47054;39.716;2.904;2022-12-07T11:00:39;8.50;;;4.18;;
61188;SDS011;47054;39.716;2.904;2022-12-07T11:15:18;8.23;;;3.95;;
61188;SDS011;47054;39.716;2.904;2022-12-07T11:18:22;7.50;;;4.15;;
61188;SDS011;47054;39.716;2.904;2022-12-07T11:21:34;7.45;;;4.28;;
61188;SDS011;47054;39.716;2.904;2022-12-07T11:27:42;8.02;;;4.15;;
61188;SDS011;47054;39.716;2.904;2022-12-07T11:30:38;8.80;;;4.43;;
61188;SDS011;47054;39.716;2.904;2022-12-07T11:33:41;7.10;;;3.97;;
61188;SDS011;47054;39.716;2.904;2022-12-07T11:36:54;7.38;;;3.60;;
61188;SDS011;47054;39.716;2.904;2022-12-07T11:40:00;6.60;;;3.85;;
61188;SDS011;47054;39.716;2.904;2022-12-07T11:46:16;6.75;;;4.05;;
61188;SDS011;47054;39.716;2.904;2022-12-07T11:49:02;6.70;;;4.03;;
61188;SDS011;47054;39.716;2.904;2022-12-07T11:51:54;7.47;;;3.95;;
61188;SDS011;47054;39.716;2.904;2022-12-07T11:54:43;6.30;;;4.15;;
61188;SDS011;47054;39.716;2.904;2022-12-07T11:57:34;6.93;;;4.00;;
61188;SDS011;47054;39.716;2.904;2022-12-07T12:00:23;6.63;;;4.07;;
61188;SDS011;47054;39.716;2.904;2022-12-07T12:03:09;7.00;;;4.28;;
61188;SDS011;47054;39.716;2.904;2022-12-07T12:06:00;6.97;;;3.97;;
61188;SDS011;47054;39.716;2.904;2022-12-07T12:08:54;7.53;;;4.40;;
61188;SDS011;47054;39.716;2.904;2022-12-07T12:21:00;7.40;;;4.03;;
61188;SDS011;47054;39.716;2.904;2022-12-07T12:23:55;6.22;;;3.83;;
61188;SDS011;47054;39.716;2.904;2022-12-07T12:26:48;7.30;;;4.18;;
61188;SDS011;47054;39.716;2.904;2022-12-07T12:29:51;6.47;;;3.65;;
61188;SDS011;47054;39.716;2.904;2022-12-07T12:32:42;7.30;;;4.25;;
61188;SDS011;47054;39.716;2.904;2022-12-07T12:41:09;6.93;;;4.00;;
61188;SDS011;47054;39.716;2.904;2022-12-07T12:53:16;7.05;;;4.00;;
61188;SDS011;47054;39.716;2.904;2022-12-07T13:08:20;7.47;;;3.70;;
61188;SDS011;47054;39.716;2.904;2022-12-07T13:11:18;7.68;;;4.00;;
61188;SDS011;47054;39.716;2.904;2022-12-07T13:18:16;5.88;;;3.65;;
61188;SDS011;47054;39.716;2.904;2022-12-07T13:20:40;5.35;;;3.40;;
61188;SDS011;47054;39.716;2.904;2022-12-07T13:31:56;6.22;;;3.53;;
61188;SDS011;47054;39.716;2.904;2022-12-07T13:34:43;7.65;;;3.50;;
61188;SDS011;47054;39.716;2.904;2022-12-07T13:37:29;5.35;;;3.38;;
61188;SDS011;47054;39.716;2.904;2022-12-07T13:40:20;5.85;;;3.55;;
61188;SDS011;47054;39.716;2.904;2022-12-07T13:43:11;6.85;;;3.60;;
61188;SDS011;47054;39.716;2.904;2022-12-07T13:51:33;5.72;;;3.40;;
61188;SDS011;47054;39.716;2.904;2022-12-07T13:54:20;7.68;;;3.72;;
61188;SDS011;47054;39.716;2.904;2022-12-07T13:57:06;7.50;;;3.90;;
61188;SDS011;47054;39.716;2.904;2022-12-07T13:59:53;5.45;;;3.22;;
61188;SDS011;47054;39.716;2.904;2022-12-07T14:02:54;6.20;;;3.42;;
61188;SDS011;47054;39.716;2.904;2022-12-07T14:05:40;6.50;;;3.40;;
61188;SDS011;47054;39.716;2.904;2022-12-07T14:08:26;6.82;;;3.70;;
61188;SDS011;47054;39.716;2.904;2022-12-07T14:11:16;5.70;;;3.47;;
61188;SDS011;47054;39.716;2.904;2022-12-07T14:14:02;5.68;;;3.50;;
61188;SDS011;47054;39.716;2.904;2022-12-07T14:19:47;5.05;;;3.05;;
61188;SDS011;47054;39.716;2.904;2022-12-07T14:22:37;5.32;;;3.30;;
61188;SDS011;47054;39.716;2.904;2022-12-07T14:25:23;6.97;;;3.58;;
61188;SDS011;47054;39.716;2.904;2022-12-07T14:28:09;5.97;;;3.63;;
61188;SDS011;47054;39.716;2.904;2022-12-07T14:31:17;6.55;;;3.25;;
61188;SDS011;47054;39.716;2.904;2022-12-07T14:34:04;5.80;;;3.30;;
61188;SDS011;47054;39.716;2.904;2022-12-07T14:36:49;7.53;;;3.90;;
61188;SDS011;47054;39.716;2.904;2022-12-07T14:39:34;5.30;;;3.10;;
61188;SDS011;47054;39.716;2.904;2022-12-07T14:42:18;5.65;;;3.28;;
61188;SDS011;47054;39.716;2.904;2022-12-07T14:45:05;4.93;;;3.08;;
61188;SDS011;47054;39.716;2.904;2022-12-07T14:47:50;5.20;;;3.20;;
61188;SDS011;47054;39.716;2.904;2022-12-07T14:50:36;5.38;;;3.20;;
61188;SDS011;47054;39.716;2.904;2022-12-07T14:53:25;5.90;;;3.13;;
61188;SDS011;47054;39.716;2.904;2022-12-07T14:56:14;4.47;;;2.80;;
61188;SDS011;47054;39.716;2.904;2022-12-07T14:58:58;6.22;;;3.03;;
61188;SDS011;47054;39.716;2.904;2022-12-07T15:01:43;5.30;;;3.03;;
61188;SDS011;47054;39.716;2.904;2022-12-07T15:04:27;4.47;;;2.95;;
61188;SDS011;47054;39.716;2.904;2022-12-07T15:07:18;6.43;;;3.17;;
61188;SDS011;47054;39.716;2.904;2022-12-07T15:10:04;4.70;;;3.05;;
61188;SDS011;47054;39.716;2.904;2022-12-07T15:12:51;5.30;;;3.08;;
61188;SDS011;47054;39.716;2.904;2022-12-07T15:15:35;6.65;;;3.53;;
61188;SDS011;47054;39.716;2.904;2022-12-07T15:18:20;5.82;;;3.17;;
61188;SDS011;47054;39.716;2.904;2022-12-07T15:21:10;6.22;;;3.42;;
61188;SDS011;47054;39.716;2.904;2022-12-07T15:23:59;5.13;;;3.17;;
61188;SDS011;47054;39.716;2.904;2022-12-07T15:26:43;4.97;;;3.10;;
61188;SDS011;47054;39.716;2.904;2022-12-07T15:29:28;5.80;;;3.33;;
61188;SDS011;47054;39.716;2.904;2022-12-07T15:32:13;4.97;;;2.80;;
61188;SDS011;47054;39.716;2.904;2022-12-07T15:34:57;5.07;;;3.20;;
61188;SDS011;47054;39.716;2.904;2022-12-07T15:37:42;5.72;;;3.00;;
61188;SDS011;47054;39.716;2.904;2022-12-07T15:40:26;5.80;;;3.10;;
61188;SDS011;47054;39.716;2.904;2022-12-07T15:43:11;5.38;;;3.00;;
61188;SDS011;47054;39.716;2.904;2022-12-07T15:46:15;5.95;;;3.33;;
61188;SDS011;47054;39.716;2.904;2022-12-07T15:49:00;5.68;;;3.15;;
61188;SDS011;47054;39.716;2.904;2022-12-07T15:51:45;5.93;;;3.20;;
61188;SDS011;47054;39.716;2.904;2022-12-07T15:54:30;6.10;;;3.40;;
61188;SDS011;47054;39.716;2.904;2022-12-07T15:57:16;6.22;;;2.85;;
61188;SDS011;47054;39.716;2.904;2022-12-07T16:00:00;5.22;;;2.97;;
61188;SDS011;47054;39.716;2.904;2022-12-07T16:02:48;5.65;;;2.88;;
61188;SDS011;47054;39.716;2.904;2022-12-07T16:05:32;5.25;;;2.97;;
61188;SDS011;47054;39.716;2.904;2022-12-07T16:08:17;5.03;;;2.95;;
61188;SDS011;47054;39.716;2.904;2022-12-07T16:11:05;5.88;;;3.30;;
61188;SDS011;47054;39.716;2.904;2022-12-07T16:13:50;5.00;;;2.90;;
61188;SDS011;47054;39.716;2.904;2022-12-07T16:16:35;5.10;;;3.05;;
61188;SDS011;47054;39.716;2.904;2022-12-07T16:19:19;5.05;;;3.15;;
61188;SDS011;47054;39.716;2.904;2022-12-07T16:22:03;5.45;;;3.13;;
61188;SDS011;47054;39.716;2.904;2022-12-07T16:24:48;7.47;;;2.92;;
61188;SDS011;47054;39.716;2.904;2022-12-07T16:27:33;5.50;;;2.92;;
61188;SDS011;47054;39.716;2.904;2022-12-07T16:30:18;4.68;;;2.95;;
61188;SDS011;47054;39.716;2.904;2022-12-07T16:33:03;4.22;;;2.70;;
61188;SDS011;47054;39.716;2.904;2022-12-07T16:35:48;6.30;;;3.08;;
61188;SDS011;47054;39.716;2.904;2022-12-07T16:38:33;5.05;;;3.10;;
61188;SDS011;47054;39.716;2.904;2022-12-07T16:41:18;5.30;;;3.03;;
61188;SDS011;47054;39.716;2.904;2022-12-07T16:44:04;4.75;;;2.63;;
61188;SDS011;47054;39.716;2.904;2022-12-07T16:46:49;6.30;;;3.30;;
61188;SDS011;47054;39.716;2.904;2022-12-07T16:49:34;4.30;;;2.70;;
61188;SDS011;47054;39.716;2.904;2022-12-07T16:52:19;4.32;;;2.60;;
61188;SDS011;47054;39.716;2.904;2022-12-07T16:55:04;5.50;;;2.65;;
61188;SDS011;47054;39.716;2.904;2022-12-07T16:57:49;4.70;;;2.70;;
61188;SDS011;47054;39.716;2.904;2022-12-07T17:00:34;6.18;;;3.35;;
61188;SDS011;47054;39.716;2.904;2022-12-07T17:03:19;5.07;;;3.08;;
61188;SDS011;47054;39.716;2.904;2022-12-07T17:06:10;5.63;;;3.20;;
61188;SDS011;47054;39.716;2.904;2022-12-07T17:08:59;5.40;;;3.13;;
61188;SDS011;47054;39.716;2.904;2022-12-07T17:11:44;5.13;;;2.90;;
61188;SDS011;47054;39.716;2.904;2022-12-07T17:14:29;6.53;;;3.30;;
61188;SDS011;47054;39.716;2.904;2022-12-07T17:17:41;5.65;;;2.90;;
61188;SDS011;47054;39.716;2.904;2022-12-07T17:20:26;6.65;;;3.10;;
61188;SDS011;47054;39.716;2.904;2022-12-07T17:23:11;7.03;;;2.90;;
61188;SDS011;47054;39.716;2.904;2022-12-07T17:25:56;6.72;;;3.35;;
61188;SDS011;47054;39.716;2.904;2022-12-07T17:28:41;5.18;;;3.03;;
61188;SDS011;47054;39.716;2.904;2022-12-07T17:31:25;5.03;;;3.08;;
61188;SDS011;47054;39.716;2.904;2022-12-07T17:34:11;5.57;;;3.22;;
61188;SDS011;47054;39.716;2.904;2022-12-07T17:36:57;5.35;;;3.13;;
61188;SDS011;47054;39.716;2.904;2022-12-07T17:39:42;5.38;;;3.05;;
61188;SDS011;47054;39.716;2.904;2022-12-07T17:42:27;5.95;;;2.92;;
61188;SDS011;47054;39.716;2.904;2022-12-07T17:45:20;5.10;;;3.20;;
61188;SDS011;47054;39.716;2.904;2022-12-07T17:48:04;5.50;;;2.95;;
61188;SDS011;47054;39.716;2.904;2022-12-07T17:50:49;5.85;;;3.30;;
61188;SDS011;47054;39.716;2.904;2022-12-07T17:53:52;4.72;;;2.80;;
61188;SDS011;47054;39.716;2.904;2022-12-07T17:56:36;4.55;;;2.72;;
61188;SDS011;47054;39.716;2.904;2022-12-07T17:59:22;5.90;;;3.30;;
61188;SDS011;47054;39.716;2.904;2022-12-07T18:02:08;4.75;;;3.10;;
61188;SDS011;47054;39.716;2.904;2022-12-07T18:04:53;4.70;;;2.70;;
61188;SDS011;47054;39.716;2.904;2022-12-07T18:07:38;4.53;;;2.83;;
61188;SDS011;47054;39.716;2.904;2022-12-07T18:10:22;4.85;;;3.00;;
61188;SDS011;47054;39.716;2.904;2022-12-07T18:13:06;6.68;;;3.38;;
61188;SDS011;47054;39.716;2.904;2022-12-07T18:16:18;5.10;;;3.10;;
61188;SDS011;47054;39.716;2.904;2022-12-07T18:19:04;5.07;;;2.95;;
61188;SDS011;47054;39.716;2.904;2022-12-07T18:21:51;5.15;;;3.00;;
61188;SDS011;47054;39.716;2.904;2022-12-07T18:24:36;6.13;;;3.25;;
61188;SDS011;47054;39.716;2.904;2022-12-07T18:27:21;5.60;;;3.42;;
61188;SDS011;47054;39.716;2.904;2022-12-07T18:30:06;6.22;;;3.58;;
61188;SDS011;47054;39.716;2.904;2022-12-07T18:32:51;5.07;;;3.00;;
61188;SDS011;47054;39.716;2.904;2022-12-07T18:35:36;6.18;;;3.42;;
61188;SDS011;47054;39.716;2.904;2022-12-07T18:38:20;6.45;;;3.45;;
61188;SDS011;47054;39.716;2.904;2022-12-07T18:41:09;5.93;;;3.30;;
61188;SDS011;47054;39.716;2.904;2022-12-07T18:43:56;6.03;;;3.25;;
61188;SDS011;47054;39.716;2.904;2022-12-07T18:46:40;5.90;;;3.33;;
61188;SDS011;47054;39.716;2.904;2022-12-07T18:49:25;5.93;;;3.25;;
61188;SDS011;47054;39.716;2.904;2022-12-07T18:52:10;6.80;;;3.25;;
61188;SDS011;47054;39.716;2.904;2022-12-07T18:54:55;5.68;;;3.20;;
61188;SDS011;47054;39.716;2.904;2022-12-07T18:57:39;5.72;;;3.47;;
61188;SDS011;47054;39.716;2.904;2022-12-07T19:00:25;8.20;;;3.63;;
61188;SDS011;47054;39.716;2.904;2022-12-07T19:03:10;7.05;;;3.60;;